createdAt,value
2016-04-15T00:00:09.879Z,0
2016-04-15T00:01:09.882Z,0
2016-04-15T00:02:09.728Z,0
2016-04-15T00:03:09.887Z,0
2016-04-15T00:04:09.359Z,0
2016-04-15T00:05:09.923Z,0
2016-04-15T00:06:09.910Z,0
2016-04-15T00:07:09.913Z,0
2016-04-15T00:08:09.931Z,0
2016-04-15T00:09:09.918Z,0
2016-04-15T00:10:09.937Z,0
2016-04-15T00:11:09.940Z,0
2016-04-15T00:12:09.943Z,0
2016-04-15T00:13:09.961Z,0
2016-04-15T00:14:09.948Z,0
2016-04-15T00:15:09.966Z,0
2016-04-15T00:16:09.969Z,0
2016-04-15T00:17:09.972Z,0
2016-04-15T00:18:09.974Z,0
2016-04-15T00:19:09.992Z,0
2016-04-15T00:20:10.072Z,0
2016-04-15T00:21:10.013Z,0
2016-04-15T00:22:10.016Z,0
2016-04-15T00:23:10.018Z,0
2016-04-15T00:24:10.021Z,0
2016-04-15T00:25:10.024Z,0
2016-04-15T00:26:10.027Z,0
2016-04-15T00:27:10.030Z,0
2016-04-15T00:28:10.048Z,0
2016-04-15T00:29:10.051Z,0
2016-04-15T00:30:10.053Z,0
2016-04-15T00:31:09.759Z,0
2016-04-15T00:32:09.918Z,0
2016-04-15T00:33:10.078Z,0
2016-04-15T00:34:10.065Z,0
2016-04-15T00:35:10.100Z,0
2016-04-15T00:36:10.093Z,0
2016-04-15T00:37:10.096Z,0
2016-04-15T00:38:10.114Z,0
2016-04-15T00:39:10.117Z,0
2016-04-15T00:40:10.120Z,0
2016-04-15T00:41:10.122Z,0
2016-04-15T00:42:10.125Z,0
2016-04-15T00:43:10.127Z,0
2016-04-15T00:44:10.130Z,0
2016-04-15T00:45:10.148Z,0
2016-04-15T00:46:10.151Z,0
2016-04-15T00:47:10.139Z,0
2016-04-15T00:48:10.157Z,0
2016-04-15T00:49:10.159Z,0
2016-04-15T00:50:10.162Z,0
2016-04-15T00:51:10.181Z,0
2016-04-15T00:52:10.198Z,0
2016-04-15T00:53:10.201Z,0
2016-04-15T00:54:10.203Z,0
2016-04-15T00:55:10.206Z,0
2016-04-15T00:56:10.224Z,0
2016-04-15T00:57:10.211Z,0
2016-04-15T00:58:10.214Z,0
2016-04-15T00:59:10.216Z,0
2016-04-15T01:00:10.235Z,0
2016-04-15T01:01:10.254Z,0
2016-04-15T01:02:10.241Z,0
2016-04-15T01:03:10.244Z,0
2016-04-15T01:04:10.262Z,0
2016-04-15T01:05:10.265Z,0
2016-04-15T01:06:10.110Z,0
2016-04-15T01:07:10.285Z,0
2016-04-15T01:08:10.273Z,0
2016-04-15T01:09:10.276Z,0
2016-04-15T01:10:10.293Z,0
2016-04-15T01:11:10.140Z,0
2016-04-15T01:12:10.298Z,0
2016-04-15T01:13:10.301Z,0
2016-04-15T01:14:10.320Z,0
2016-04-15T01:15:10.322Z,0
2016-04-15T01:16:10.342Z,0
2016-04-15T01:17:10.328Z,0
2016-04-15T01:18:10.331Z,0
2016-04-15T01:19:10.350Z,0
2016-04-15T01:20:10.352Z,0
2016-04-15T01:21:10.355Z,0
2016-04-15T01:22:10.372Z,0
2016-04-15T01:23:10.375Z,0
2016-04-15T01:24:10.378Z,0
2016-04-15T01:25:10.380Z,0
2016-04-15T01:26:10.400Z,0
2016-04-15T01:27:10.402Z,0
2016-04-15T01:28:10.389Z,0
2016-04-15T01:29:10.392Z,0
2016-04-15T01:30:10.410Z,0
2016-04-15T01:31:10.413Z,0
2016-04-15T01:32:10.415Z,0
2016-04-15T01:33:10.433Z,0
2016-04-15T01:34:10.421Z,0
2016-04-15T01:35:10.439Z,0
2016-04-15T01:36:10.441Z,0
2016-04-15T01:37:10.444Z,0
2016-04-15T01:38:10.446Z,0
2016-04-15T01:39:10.449Z,0
2016-04-15T01:40:10.468Z,0
2016-04-15T01:41:10.470Z,0
2016-04-15T01:42:10.474Z,0
2016-04-15T01:43:10.492Z,0
2016-04-15T01:44:10.479Z,0
2016-04-15T01:45:10.513Z,0
2016-04-15T01:46:10.484Z,0
2016-04-15T01:47:10.503Z,0
2016-04-15T01:48:10.505Z,0
2016-04-15T01:49:10.508Z,0
2016-04-15T01:50:10.526Z,0
2016-04-15T01:51:10.528Z,0
2016-04-15T01:52:10.531Z,0
2016-04-15T01:53:10.533Z,0
2016-04-15T01:54:10.552Z,0
2016-04-15T01:55:10.555Z,0
2016-04-15T01:56:10.573Z,0
2016-04-15T01:57:10.577Z,0
2016-04-15T01:58:10.579Z,0
2016-04-15T01:59:10.582Z,0
2016-04-15T02:00:10.600Z,0
2016-04-15T02:01:10.588Z,0
2016-04-15T02:02:10.590Z,0
2016-04-15T02:03:10.593Z,0
2016-04-15T02:04:10.595Z,0
2016-04-15T02:05:10.598Z,0
2016-04-15T02:06:10.616Z,0
2016-04-15T02:07:10.619Z,0
2016-04-15T02:08:10.466Z,0
2016-04-15T02:09:10.640Z,0
2016-04-15T02:10:10.643Z,0
2016-04-15T02:11:10.646Z,0
2016-04-15T02:12:10.648Z,0
2016-04-15T02:13:10.651Z,0
2016-04-15T02:14:10.653Z,0
2016-04-15T02:15:10.656Z,0
2016-04-15T02:16:10.674Z,0
2016-04-15T02:17:10.676Z,0
2016-04-15T02:18:10.679Z,0
2016-04-15T02:19:10.681Z,0
2016-04-15T02:20:10.700Z,0
2016-04-15T02:21:10.687Z,0
2016-04-15T02:22:10.689Z,0
2016-04-15T02:23:10.709Z,0
2016-04-15T02:24:10.727Z,0
2016-04-15T02:25:10.730Z,0
2016-04-15T02:26:10.733Z,0
2016-04-15T02:27:10.735Z,0
2016-04-15T02:28:10.753Z,0
2016-04-15T02:29:10.756Z,0
2016-04-15T02:30:10.790Z,0
2016-04-15T02:31:10.746Z,0
2016-04-15T02:32:10.764Z,0
2016-04-15T02:33:10.766Z,0
2016-04-15T02:34:10.785Z,0
2016-04-15T02:35:10.787Z,0
2016-04-15T02:36:10.774Z,0
2016-04-15T02:37:10.777Z,0
2016-04-15T02:38:10.796Z,0
2016-04-15T02:39:10.799Z,0
2016-04-15T02:40:10.817Z,0
2016-04-15T02:41:10.804Z,0
2016-04-15T02:42:10.823Z,0
2016-04-15T02:43:10.825Z,0
2016-04-15T02:44:10.828Z,0
2016-04-15T02:45:10.908Z,0
2016-04-15T02:46:10.833Z,0
2016-04-15T02:47:10.851Z,0
2016-04-15T02:48:10.854Z,0
2016-04-15T02:49:10.857Z,0
2016-04-15T02:50:10.860Z,0
2016-04-15T02:51:10.878Z,0
2016-04-15T02:52:10.881Z,0
2016-04-15T02:53:10.868Z,0
2016-04-15T02:54:10.886Z,0
2016-04-15T02:55:10.904Z,0
2016-04-15T02:56:10.906Z,0
2016-04-15T02:57:10.925Z,0
2016-04-15T02:58:10.928Z,0
2016-04-15T02:59:10.914Z,0
2016-04-15T03:00:10.230Z,0
2016-04-15T03:01:10.920Z,0
2016-04-15T03:02:10.970Z,0
2016-04-15T03:03:10.925Z,0
2016-04-15T03:04:10.944Z,0
2016-04-15T03:05:10.963Z,0
2016-04-15T03:06:10.949Z,0
2016-04-15T03:07:10.952Z,0
2016-04-15T03:08:10.986Z,0
2016-04-15T03:09:10.973Z,0
2016-04-15T03:10:10.976Z,0
2016-04-15T03:11:10.993Z,0
2016-04-15T03:12:10.996Z,0
2016-04-15T03:13:10.984Z,0
2016-04-15T03:14:11.001Z,0
2016-04-15T03:15:11.129Z,0
2016-04-15T03:16:11.007Z,0
2016-04-15T03:17:11.009Z,0
2016-04-15T03:18:11.044Z,0
2016-04-15T03:19:11.015Z,0
2016-04-15T03:20:11.050Z,0
2016-04-15T03:21:11.053Z,0
2016-04-15T03:22:10.883Z,0
2016-04-15T03:23:11.042Z,0
2016-04-15T03:24:11.061Z,0
2016-04-15T03:25:11.063Z,0
2016-04-15T03:26:11.066Z,0
2016-04-15T03:27:11.068Z,0
2016-04-15T03:28:11.086Z,0
2016-04-15T03:29:11.089Z,0
2016-04-15T03:30:11.202Z,0
2016-04-15T03:31:11.111Z,0
2016-04-15T03:32:11.113Z,0
2016-04-15T03:33:11.116Z,0
2016-04-15T03:34:11.119Z,0
2016-04-15T03:35:11.121Z,0
2016-04-15T03:36:11.124Z,0
2016-04-15T03:37:11.141Z,0
2016-04-15T03:38:11.144Z,0
2016-04-15T03:39:11.147Z,0
2016-04-15T03:40:11.150Z,0
2016-04-15T03:41:11.168Z,0
2016-04-15T03:42:11.155Z,0
2016-04-15T03:43:11.174Z,0
2016-04-15T03:44:11.176Z,0
2016-04-15T03:45:11.242Z,0
2016-04-15T03:46:11.182Z,0
2016-04-15T03:47:11.201Z,0
2016-04-15T03:48:11.187Z,0
2016-04-15T03:49:11.206Z,0
2016-04-15T03:50:11.223Z,0
2016-04-15T03:51:11.195Z,0
2016-04-15T03:52:11.214Z,0
2016-04-15T03:53:11.216Z,0
2016-04-15T03:54:11.219Z,0
2016-04-15T03:55:11.081Z,0
2016-04-15T03:56:11.239Z,0
2016-04-15T03:57:11.242Z,0
2016-04-15T03:58:11.244Z,0
2016-04-15T03:59:11.263Z,0
2016-04-15T04:00:11.250Z,0
2016-04-15T04:01:11.269Z,0
2016-04-15T04:02:11.272Z,0
2016-04-15T04:03:11.274Z,0
2016-04-15T04:04:11.277Z,0
2016-04-15T04:05:11.296Z,0
2016-04-15T04:06:11.298Z,0
2016-04-15T04:07:11.316Z,0
2016-04-15T04:08:11.304Z,0
2016-04-15T04:09:11.306Z,0
2016-04-15T04:10:11.324Z,0
2016-04-15T04:11:11.327Z,0
2016-04-15T04:12:11.330Z,0
2016-04-15T04:13:11.363Z,0
2016-04-15T04:14:11.351Z,0
2016-04-15T04:15:11.369Z,0
2016-04-15T04:16:11.356Z,0
2016-04-15T04:17:11.359Z,0
2016-04-15T04:18:11.362Z,0
2016-04-15T04:19:11.364Z,4
2016-04-15T04:20:11.382Z,4
2016-04-15T04:21:11.401Z,0
2016-04-15T04:22:11.387Z,4
2016-04-15T04:23:11.406Z,4
2016-04-15T04:24:11.392Z,4
2016-04-15T04:25:11.411Z,0
2016-04-15T04:26:11.398Z,4
2016-04-15T04:27:11.401Z,4
2016-04-15T04:28:11.420Z,4
2016-04-15T04:29:11.454Z,4
2016-04-15T04:30:11.441Z,4
2016-04-15T04:31:11.428Z,8
2016-04-15T04:32:11.431Z,8
2016-04-15T04:33:11.433Z,8
2016-04-15T04:34:11.452Z,8
2016-04-15T04:35:11.454Z,12
2016-04-15T04:36:11.457Z,12
2016-04-15T04:37:11.475Z,16
2016-04-15T04:38:11.477Z,12
2016-04-15T04:39:11.480Z,16
2016-04-15T04:40:11.498Z,16
2016-04-15T04:41:11.501Z,16
2016-04-15T04:42:11.520Z,16
2016-04-15T04:43:11.507Z,16
2016-04-15T04:44:11.510Z,12
2016-04-15T04:45:11.512Z,12
2016-04-15T04:46:11.531Z,16
2016-04-15T04:47:11.518Z,12
2016-04-15T04:48:11.536Z,12
2016-04-15T04:49:11.554Z,16
2016-04-15T04:50:11.541Z,16
2016-04-15T04:51:11.544Z,16
2016-04-15T04:52:11.719Z,20
2016-04-15T04:53:12.158Z,20
2016-04-15T04:54:11.565Z,20
2016-04-15T04:55:11.438Z,20
2016-04-15T04:56:11.576Z,24
2016-04-15T04:57:11.594Z,24
2016-04-15T04:58:11.597Z,24
2016-04-15T04:59:11.600Z,24
2016-04-15T05:00:11.618Z,20
2016-04-15T05:01:11.620Z,24
2016-04-15T05:02:11.608Z,28
2016-04-15T05:03:11.626Z,28
2016-04-15T05:04:11.628Z,24
2016-04-15T05:05:11.631Z,28
2016-04-15T05:06:11.649Z,32
2016-04-15T05:07:11.636Z,28
2016-04-15T05:08:11.655Z,32
2016-04-15T05:09:11.673Z,36
2016-04-15T05:10:11.677Z,32
2016-04-15T05:11:11.663Z,32
2016-04-15T05:12:11.666Z,32
2016-04-15T05:13:11.669Z,36
2016-04-15T05:14:11.702Z,40
2016-04-15T05:15:11.705Z,40
2016-04-15T05:16:11.708Z,36
2016-04-15T05:17:11.679Z,40
2016-04-15T05:18:11.698Z,40
2016-04-15T05:19:11.731Z,40
2016-04-15T05:20:11.718Z,40
2016-04-15T05:21:11.737Z,44
2016-04-15T05:22:11.739Z,40
2016-04-15T05:23:11.726Z,44
2016-04-15T05:24:11.745Z,40
2016-04-15T05:25:11.763Z,40
2016-04-15T05:26:11.750Z,40
2016-04-15T05:27:11.753Z,40
2016-04-15T05:28:11.756Z,40
2016-04-15T05:29:11.775Z,40
2016-04-15T05:30:11.761Z,40
2016-04-15T05:31:11.780Z,40
2016-04-15T05:32:11.782Z,40
2016-04-15T05:33:11.785Z,44
2016-04-15T05:34:11.788Z,40
2016-04-15T05:35:11.790Z,40
2016-04-15T05:36:11.809Z,44
2016-04-15T05:37:11.811Z,44
2016-04-15T05:38:11.814Z,44
2016-04-15T05:39:11.833Z,48
2016-04-15T05:40:11.819Z,48
2016-04-15T05:41:11.838Z,52
2016-04-15T05:42:11.840Z,56
2016-04-15T05:43:11.843Z,60
2016-04-15T05:44:11.846Z,68
2016-04-15T05:45:11.848Z,72
2016-04-15T05:46:11.866Z,76
2016-04-15T05:47:11.869Z,76
2016-04-15T05:48:11.887Z,80
2016-04-15T05:49:11.874Z,80
2016-04-15T05:50:11.893Z,76
2016-04-15T05:51:11.895Z,80
2016-04-15T05:52:11.899Z,76
2016-04-15T05:53:11.901Z,76
2016-04-15T05:54:11.904Z,76
2016-04-15T05:55:14.063Z,76
2016-04-15T05:56:11.925Z,76
2016-04-15T05:57:11.928Z,76
2016-04-15T05:58:11.773Z,80
2016-04-15T05:59:11.933Z,84
2016-04-15T06:00:11.936Z,84
2016-04-15T06:01:11.938Z,88
2016-04-15T06:02:11.972Z,88
2016-04-15T06:03:11.958Z,84
2016-04-15T06:04:11.977Z,84
2016-04-15T06:05:11.964Z,84
2016-04-15T06:06:11.966Z,80
2016-04-15T06:07:11.985Z,84
2016-04-15T06:08:11.988Z,84
2016-04-15T06:09:11.991Z,92
2016-04-15T06:10:12.260Z,96
2016-04-15T06:11:11.997Z,100
2016-04-15T06:12:11.999Z,108
2016-04-15T06:13:12.018Z,116
2016-04-15T06:14:12.020Z,120
2016-04-15T06:15:12.007Z,124
2016-04-15T06:16:12.041Z,128
2016-04-15T06:17:12.028Z,132
2016-04-15T06:18:12.046Z,140
2016-04-15T06:19:12.049Z,144
2016-04-15T06:20:12.052Z,152
2016-04-15T06:21:12.060Z,156
2016-04-15T06:22:12.048Z,160
2016-04-15T06:23:12.067Z,168
2016-04-15T06:24:12.086Z,168
2016-04-15T06:25:12.088Z,172
2016-04-15T06:26:12.091Z,176
2016-04-15T06:27:12.093Z,176
2016-04-15T06:28:12.100Z,176
2016-04-15T06:29:12.102Z,180
2016-04-15T06:30:12.105Z,184
2016-04-15T06:31:12.155Z,180
2016-04-15T06:32:12.127Z,180
2016-04-15T06:33:12.130Z,172
2016-04-15T06:34:12.149Z,168
2016-04-15T06:35:12.135Z,168
2016-04-15T06:36:12.154Z,164
2016-04-15T06:37:12.157Z,164
2016-04-15T06:38:12.143Z,164
2016-04-15T06:39:12.162Z,168
2016-04-15T06:40:12.164Z,168
2016-04-15T06:41:12.182Z,176
2016-04-15T06:42:12.170Z,176
2016-04-15T06:43:12.172Z,176
2016-04-15T06:44:12.190Z,176
2016-04-15T06:45:12.192Z,168
2016-04-15T06:46:12.086Z,160
2016-04-15T06:47:12.214Z,160
2016-04-15T06:48:12.216Z,156
2016-04-15T06:49:12.220Z,156
2016-04-15T06:50:12.222Z,152
2016-04-15T06:51:12.225Z,156
2016-04-15T06:52:12.087Z,228
2016-04-15T06:53:12.246Z,272
2016-04-15T06:54:12.249Z,292
2016-04-15T06:55:12.251Z,308
2016-04-15T06:56:12.254Z,312
2016-04-15T06:57:12.257Z,312
2016-04-15T06:58:12.275Z,312
2016-04-15T06:59:12.278Z,308
2016-04-15T07:00:12.297Z,312
2016-04-15T07:01:12.408Z,312
2016-04-15T07:02:12.286Z,308
2016-04-15T07:03:12.288Z,300
2016-04-15T07:04:12.307Z,304
2016-04-15T07:05:12.294Z,304
2016-04-15T07:06:12.312Z,316
2016-04-15T07:07:12.330Z,324
2016-04-15T07:08:12.333Z,340
2016-04-15T07:09:12.335Z,356
2016-04-15T07:10:12.338Z,368
2016-04-15T07:11:12.356Z,380
2016-04-15T07:12:12.359Z,388
2016-04-15T07:13:12.362Z,396
2016-04-15T07:14:12.365Z,396
2016-04-15T07:15:12.368Z,392
2016-04-15T07:16:12.479Z,388
2016-04-15T07:17:12.373Z,384
2016-04-15T07:18:12.376Z,384
2016-04-15T07:19:12.395Z,384
2016-04-15T07:20:12.397Z,388
2016-04-15T07:21:12.404Z,388
2016-04-15T07:22:12.407Z,388
2016-04-15T07:23:12.425Z,388
2016-04-15T07:24:12.427Z,388
2016-04-15T07:25:12.430Z,388
2016-04-15T07:26:12.432Z,384
2016-04-15T07:27:12.795Z,384
2016-04-15T07:28:12.444Z,380
2016-04-15T07:29:12.743Z,372
2016-04-15T07:30:12.449Z,368
2016-04-15T07:31:12.374Z,356
2016-04-15T07:32:12.470Z,348
2016-04-15T07:33:12.473Z,352
2016-04-15T07:34:12.475Z,348
2016-04-15T07:35:12.493Z,340
2016-04-15T07:36:12.496Z,332
2016-04-15T07:37:12.498Z,324
2016-04-15T07:38:12.861Z,324
2016-04-15T07:39:12.504Z,332
2016-04-15T07:40:12.522Z,340
2016-04-15T07:41:12.526Z,340
2016-04-15T07:42:12.528Z,340
2016-04-15T07:43:12.781Z,348
2016-04-15T07:44:12.393Z,348
2016-04-15T07:45:12.552Z,348
2016-04-15T07:46:12.805Z,336
2016-04-15T07:47:12.760Z,316
2016-04-15T07:48:12.575Z,304
2016-04-15T07:49:12.578Z,292
2016-04-15T07:50:12.830Z,280
2016-04-15T07:51:12.583Z,276
2016-04-15T07:52:12.898Z,276
2016-04-15T07:53:12.807Z,272
2016-04-15T07:54:12.591Z,272
2016-04-15T07:55:12.609Z,276
2016-04-15T07:56:12.613Z,268
2016-04-15T07:57:12.615Z,260
2016-04-15T07:58:12.977Z,248
2016-04-15T07:59:12.636Z,240
2016-04-15T08:00:12.935Z,240
2016-04-15T08:01:12.813Z,240
2016-04-15T08:02:12.940Z,236
2016-04-15T08:03:12.647Z,232
2016-04-15T08:04:12.806Z,228
2016-04-15T08:05:12.809Z,228
2016-04-15T08:06:12.671Z,224
2016-04-15T08:07:12.690Z,224
2016-04-15T08:08:12.832Z,224
2016-04-15T08:09:12.945Z,228
2016-04-15T08:10:12.697Z,224
2016-04-15T08:11:12.903Z,220
2016-04-15T08:12:12.703Z,212
2016-04-15T08:13:12.720Z,204
2016-04-15T08:14:12.973Z,200
2016-04-15T08:15:13.085Z,204
2016-04-15T08:16:12.839Z,212
2016-04-15T08:17:12.747Z,212
2016-04-15T08:18:12.734Z,212
2016-04-15T08:19:13.003Z,200
2016-04-15T08:20:12.755Z,192
2016-04-15T08:21:12.764Z,188
2016-04-15T08:22:12.829Z,184
2016-04-15T08:23:12.784Z,188
2016-04-15T08:24:12.975Z,188
2016-04-15T08:25:12.789Z,192
2016-04-15T08:26:12.996Z,200
2016-04-15T08:27:12.858Z,212
2016-04-15T08:28:12.813Z,216
2016-04-15T08:29:13.114Z,224
2016-04-15T08:30:12.819Z,220
2016-04-15T08:31:13.093Z,220
2016-04-15T08:32:12.888Z,220
2016-04-15T08:33:12.933Z,228
2016-04-15T08:35:13.024Z,244
2016-04-15T08:36:13.331Z,256
2016-04-15T08:37:13.099Z,260
2016-04-15T08:38:13.117Z,260
2016-04-15T08:39:13.135Z,260
2016-04-15T08:40:13.200Z,264
2016-04-15T08:41:13.186Z,268
2016-04-15T08:42:13.428Z,276
2016-04-15T08:43:13.436Z,280
2016-04-15T08:44:13.211Z,292
2016-04-15T08:45:13.219Z,300
2016-04-15T08:46:13.788Z,304
2016-04-15T08:47:13.403Z,312
2016-04-15T08:48:13.266Z,312
2016-04-15T08:49:13.256Z,312
2016-04-15T08:50:13.275Z,300
2016-04-15T08:51:13.358Z,292
2016-04-15T08:52:13.284Z,280
2016-04-15T08:53:13.506Z,272
2016-04-15T08:54:13.322Z,268
2016-04-15T08:55:13.294Z,264
2016-04-15T08:56:13.375Z,260
2016-04-15T08:57:13.331Z,260
2016-04-15T08:58:13.334Z,272
2016-04-15T08:59:13.495Z,284
2016-04-15T09:00:13.356Z,304
2016-04-15T09:01:13.343Z,320
2016-04-15T09:02:13.362Z,332
2016-04-15T09:03:13.365Z,340
2016-04-15T09:05:13.387Z,324
2016-04-15T09:06:13.639Z,320
2016-04-15T09:07:13.735Z,316
2016-04-15T09:08:13.394Z,320
2016-04-15T09:09:13.397Z,324
2016-04-15T09:10:13.415Z,324
2016-04-15T09:11:13.417Z,332
2016-04-15T09:12:13.452Z,336
2016-04-15T09:13:13.438Z,336
2016-04-15T09:14:13.785Z,332
2016-04-15T09:15:13.428Z,328
2016-04-15T09:16:13.759Z,328
2016-04-15T09:17:13.575Z,324
2016-04-15T09:18:13.452Z,312
2016-04-15T09:19:13.471Z,308
2016-04-15T09:20:13.316Z,304
2016-04-15T09:21:13.616Z,288
2016-04-15T09:22:13.479Z,268
2016-04-15T09:23:13.841Z,260
2016-04-15T09:24:13.515Z,252
2016-04-15T09:25:13.519Z,252
2016-04-15T09:26:13.521Z,256
2016-04-15T09:27:13.430Z,256
2016-04-15T09:28:13.838Z,264
2016-04-15T09:29:13.591Z,276
2016-04-15T09:30:13.532Z,284
2016-04-15T09:31:13.565Z,296
2016-04-15T09:32:13.662Z,320
2016-04-15T09:33:13.554Z,348
2016-04-15T09:34:13.620Z,376
2016-04-15T09:35:13.576Z,392
2016-04-15T09:36:13.579Z,412
2016-04-15T09:37:13.582Z,444
2016-04-15T09:38:13.693Z,464
2016-04-15T09:39:13.650Z,480
2016-04-15T09:40:13.620Z,460
2016-04-15T09:41:13.623Z,424
2016-04-15T09:42:13.642Z,412
2016-04-15T09:43:13.644Z,416
2016-04-15T09:44:13.616Z,412
2016-04-15T09:45:13.633Z,396
2016-04-15T09:46:13.652Z,396
2016-04-15T09:47:13.639Z,420
2016-04-15T09:48:13.752Z,424
2016-04-15T09:49:13.677Z,404
2016-04-15T09:50:13.757Z,372
2016-04-15T09:51:13.682Z,364
2016-04-15T09:52:13.824Z,376
2016-04-15T09:53:13.812Z,400
2016-04-15T09:54:13.705Z,412
2016-04-15T09:56:13.711Z,432
2016-04-15T09:57:13.714Z,436
2016-04-15T09:58:13.779Z,432
2016-04-15T09:59:13.891Z,432
2016-04-15T10:00:13.752Z,436
2016-04-15T10:01:13.771Z,452
2016-04-15T10:02:13.757Z,472
2016-04-15T10:03:13.776Z,484
2016-04-15T10:04:13.920Z,508
2016-04-15T10:05:13.797Z,540
2016-04-15T10:06:13.893Z,536
2016-04-15T10:07:13.787Z,496
2016-04-15T10:08:13.884Z,448
2016-04-15T10:09:13.809Z,412
2016-04-15T10:10:13.795Z,388
2016-04-15T10:11:13.798Z,372
2016-04-15T10:12:13.972Z,376
2016-04-15T10:13:14.022Z,384
2016-04-15T10:14:13.837Z,384
2016-04-15T10:15:13.871Z,376
2016-04-15T10:16:13.905Z,360
2016-04-15T10:17:13.876Z,336
2016-04-15T10:18:13.847Z,312
2016-04-15T10:19:13.850Z,300
2016-04-15T10:20:13.963Z,304
2016-04-15T10:21:13.872Z,312
2016-04-15T10:22:13.890Z,304
2016-04-15T10:23:13.893Z,296
2016-04-15T10:24:13.895Z,284
2016-04-15T10:25:13.913Z,280
2016-04-15T10:26:13.916Z,288
2016-04-15T10:27:13.919Z,308
2016-04-15T10:28:13.922Z,328
2016-04-15T10:29:13.941Z,332
2016-04-15T10:30:13.943Z,340
2016-04-15T10:31:13.946Z,340
2016-04-15T10:32:13.963Z,340
2016-04-15T10:33:13.951Z,340
2016-04-15T10:34:13.968Z,336
2016-04-15T10:35:13.971Z,340
2016-04-15T10:36:13.990Z,332
2016-04-15T10:37:13.992Z,320
2016-04-15T10:38:13.996Z,300
2016-04-15T10:39:13.998Z,312
2016-04-15T10:40:14.017Z,320
2016-04-15T10:41:14.019Z,368
2016-04-15T10:42:14.022Z,412
2016-04-15T10:43:14.040Z,428
2016-04-15T10:44:14.027Z,464
2016-04-15T10:45:14.045Z,476
2016-04-15T10:46:14.063Z,476
2016-04-15T10:47:14.066Z,468
2016-04-15T10:48:14.053Z,452
2016-04-15T10:49:14.071Z,448
2016-04-15T10:50:14.091Z,480
2016-04-15T10:51:14.093Z,512
2016-04-15T10:52:14.096Z,516
2016-04-15T10:53:14.098Z,512
2016-04-15T10:54:14.116Z,528
2016-04-15T10:55:14.104Z,592
2016-04-15T10:56:13.966Z,596
2016-04-15T10:57:14.125Z,528
2016-04-15T10:58:14.144Z,468
2016-04-15T10:59:14.146Z,464
2016-04-15T11:00:14.164Z,484
2016-04-15T11:01:14.152Z,508
2016-04-15T11:02:14.154Z,532
2016-04-15T11:03:14.172Z,548
2016-04-15T11:04:14.174Z,556
2016-04-15T11:05:14.193Z,560
2016-04-15T11:06:14.195Z,560
2016-04-15T11:07:14.198Z,556
2016-04-15T11:08:14.232Z,536
2016-04-15T11:09:14.220Z,500
2016-04-15T11:10:14.223Z,508
2016-04-15T11:11:14.225Z,524
2016-04-15T11:12:14.228Z,528
2016-04-15T11:13:14.231Z,516
2016-04-15T11:14:14.248Z,484
2016-04-15T11:15:14.251Z,456
2016-04-15T11:16:14.269Z,432
2016-04-15T11:17:14.272Z,416
2016-04-15T11:18:14.274Z,380
2016-04-15T11:19:14.261Z,352
2016-04-15T11:20:14.296Z,332
2016-04-15T11:21:14.299Z,336
2016-04-15T11:22:14.286Z,336
2016-04-15T11:23:14.304Z,340
2016-04-15T11:24:14.307Z,336
2016-04-15T11:25:14.324Z,328
2016-04-15T11:26:14.312Z,328
2016-04-15T11:27:14.330Z,336
2016-04-15T11:28:14.349Z,348
2016-04-15T11:29:14.336Z,352
2016-04-15T11:30:14.355Z,332
2016-04-15T11:31:14.357Z,320
2016-04-15T11:32:14.454Z,312
2016-04-15T11:33:14.362Z,296
2016-04-15T11:34:14.380Z,284
2016-04-15T11:35:14.696Z,284
2016-04-15T11:36:14.385Z,292
2016-04-15T11:37:15.232Z,288
2016-04-15T11:38:14.422Z,292
2016-04-15T11:39:14.426Z,296
2016-04-15T11:40:14.428Z,304
2016-04-15T11:41:14.431Z,324
2016-04-15T11:42:14.433Z,352
2016-04-15T11:43:14.451Z,364
2016-04-15T11:44:14.454Z,368
2016-04-15T11:45:14.456Z,356
2016-04-15T11:46:14.459Z,344
2016-04-15T11:47:14.650Z,324
2016-04-15T11:48:14.480Z,308
2016-04-15T11:49:14.467Z,292
2016-04-15T11:50:14.502Z,288
2016-04-15T11:51:14.504Z,280
2016-04-15T11:52:14.491Z,264
2016-04-15T11:53:14.510Z,264
2016-04-15T11:54:14.512Z,264
2016-04-15T11:55:14.452Z,264
2016-04-15T11:56:14.533Z,268
2016-04-15T11:57:14.536Z,276
2016-04-15T11:58:14.399Z,292
2016-04-15T11:59:14.557Z,296
2016-04-15T12:00:14.560Z,284
2016-04-15T12:01:14.562Z,280
2016-04-15T12:02:14.752Z,276
2016-04-15T12:03:14.567Z,280
2016-04-15T12:04:14.585Z,284
2016-04-15T12:05:14.604Z,288
2016-04-15T12:06:14.607Z,296
2016-04-15T12:07:14.640Z,296
2016-04-15T12:08:14.629Z,296
2016-04-15T12:09:14.412Z,300
2016-04-15T12:10:15.261Z,296
2016-04-15T12:11:14.654Z,292
2016-04-15T12:12:14.656Z,292
2016-04-15T12:13:14.644Z,292
2016-04-15T12:14:14.646Z,288
2016-04-15T12:15:15.211Z,284
2016-04-15T12:16:14.698Z,280
2016-04-15T12:17:14.795Z,292
2016-04-15T12:18:14.688Z,304
2016-04-15T12:19:14.691Z,308
2016-04-15T12:20:14.710Z,300
2016-04-15T12:21:14.712Z,296
2016-04-15T12:22:14.699Z,288
2016-04-15T12:23:14.717Z,304
2016-04-15T12:24:14.735Z,304
2016-04-15T12:25:14.738Z,284
2016-04-15T12:26:14.734Z,268
2016-04-15T12:27:14.753Z,260
2016-04-15T12:28:14.756Z,256
2016-04-15T12:29:14.603Z,260
2016-04-15T12:30:14.762Z,272
2016-04-15T12:31:14.780Z,276
2016-04-15T12:32:14.798Z,288
2016-04-15T12:33:14.800Z,292
2016-04-15T12:34:14.850Z,272
2016-04-15T12:35:14.806Z,268
2016-04-15T12:36:14.825Z,276
2016-04-15T12:37:14.828Z,272
2016-04-15T12:38:14.830Z,264
2016-04-15T12:39:14.833Z,244
2016-04-15T12:40:14.850Z,236
2016-04-15T12:41:14.838Z,232
2016-04-15T12:42:14.856Z,248
2016-04-15T12:43:14.858Z,260
2016-04-15T12:44:14.861Z,244
2016-04-15T12:45:14.879Z,256
2016-04-15T12:46:14.883Z,276
2016-04-15T12:47:14.807Z,268
2016-04-15T12:48:14.888Z,260
2016-04-15T12:49:14.922Z,252
2016-04-15T12:50:14.924Z,248
2016-04-15T12:51:14.927Z,256
2016-04-15T12:52:14.929Z,264
2016-04-15T12:53:14.932Z,288
2016-04-15T12:54:14.950Z,316
2016-04-15T12:55:14.953Z,332
2016-04-15T12:56:14.972Z,328
2016-04-15T12:57:14.959Z,312
2016-04-15T12:58:14.993Z,304
2016-04-15T12:59:14.980Z,316
2016-04-15T13:00:14.998Z,352
2016-04-15T13:01:15.000Z,404
2016-04-15T13:02:15.019Z,432
2016-04-15T13:03:15.006Z,412
2016-04-15T13:04:15.009Z,396
2016-04-15T13:05:15.028Z,532
2016-04-15T13:06:15.031Z,572
2016-04-15T13:07:15.033Z,512
2016-04-15T13:08:15.036Z,484
2016-04-15T13:09:15.038Z,440
2016-04-15T13:10:15.056Z,408
2016-04-15T13:11:15.058Z,372
2016-04-15T13:12:15.061Z,328
2016-04-15T13:13:15.080Z,316
2016-04-15T13:14:15.099Z,372
2016-04-15T13:15:15.086Z,388
2016-04-15T13:16:15.104Z,364
2016-04-15T13:17:15.107Z,336
2016-04-15T13:18:15.115Z,360
2016-04-15T13:19:15.117Z,340
2016-04-15T13:20:15.120Z,344
2016-04-15T13:21:15.137Z,356
2016-04-15T13:22:15.125Z,376
2016-04-15T13:23:15.143Z,348
2016-04-15T13:24:15.146Z,340
2016-04-15T13:25:15.164Z,368
2016-04-15T13:26:15.167Z,428
2016-04-15T13:27:15.170Z,496
2016-04-15T13:28:15.187Z,504
2016-04-15T13:29:15.190Z,444
2016-04-15T13:30:15.192Z,396
2016-04-15T13:31:15.211Z,396
2016-04-15T13:32:15.214Z,364
2016-04-15T13:33:15.217Z,340
2016-04-15T13:34:15.251Z,332
2016-04-15T13:35:15.238Z,348
2016-04-15T13:36:15.241Z,388
2016-04-15T13:37:15.244Z,360
2016-04-15T13:38:15.246Z,304
2016-04-15T13:39:15.280Z,284
2016-04-15T13:40:15.266Z,276
2016-04-15T13:41:15.269Z,280
2016-04-15T13:42:15.287Z,292
2016-04-15T13:43:15.290Z,312
2016-04-15T13:44:15.293Z,408
2016-04-15T13:45:15.280Z,564
2016-04-15T13:46:15.299Z,448
2016-04-15T13:47:15.318Z,352
2016-04-15T13:48:15.335Z,316
2016-04-15T13:49:15.323Z,316
2016-04-15T13:50:15.325Z,312
2016-04-15T13:51:15.329Z,308
2016-04-15T13:52:15.346Z,316
2016-04-15T13:53:15.365Z,332
2016-04-15T13:54:15.351Z,344
2016-04-15T13:55:15.385Z,324
2016-04-15T13:56:15.373Z,384
2016-04-15T13:57:15.406Z,388
2016-04-15T13:58:15.409Z,348
2016-04-15T13:59:15.395Z,332
2016-04-15T14:00:15.398Z,328
2016-04-15T14:01:15.417Z,380
2016-04-15T14:02:15.420Z,400
2016-04-15T14:03:15.423Z,368
2016-04-15T14:04:15.425Z,348
2016-04-15T14:05:15.444Z,328
2016-04-15T14:06:15.446Z,336
2016-04-15T14:07:15.464Z,432
2016-04-15T14:08:15.467Z,452
2016-04-15T14:09:15.485Z,396
2016-04-15T14:10:15.332Z,424
2016-04-15T14:11:15.490Z,396